Time;durP1;ratioP1;P1;durP2;ratioP2;P2;SDS_P1;SDS_P2;PMS_P1;PMS_P2;Temp;Humidity;BMP_temperature;BMP_pressure;BME280_temperature;BME280_humidity;BME280_pressure;Samples;Min_cycle;Max_cycle;Signal;HPM_P1;HPM_P2
2022/04/09 00:01:17;;;;;;;;;;;;;;;14.39;70.09;97894.88;5230934;27;33380;-88
2022/04/09 00:03:50;;;;;;;;;;;;;;;14.27;70.71;97879.00;5231257;27;34514;-89
2022/04/09 00:06:18;;;;;;;;;;;;;;;14.36;70.21;97888.06;5229817;27;35047;-89
2022/04/09 00:08:52;;;;;;;;;;;;;;;14.36;70.28;97882.84;5234641;27;33039;-89
2022/04/09 00:11:22;;;;;;;;;;;;;;;14.32;70.57;97870.06;5235040;27;33781;-88
2022/04/09 00:13:52;;;;;;;;;;;;;;;14.19;71.63;97864.72;5232654;27;33987;-89
2022/04/09 00:16:24;;;;;;;;;;;;;;;14.39;70.59;97860.97;5230665;27;34489;-89
2022/04/09 00:18:56;;;;;;;;;;;;;;;14.32;70.81;97850.03;5229702;27;33432;-89
2022/04/09 00:21:28;;;;;;;;;;;;;;;13.91;73.01;97855.00;5228995;27;34577;-88
2022/04/09 00:24:00;;;;;;;;;;;;;;;13.72;74.23;97845.59;5234215;27;34359;-89
2022/04/09 00:26:31;;;;;;;;;;;;;;;13.65;74.54;97829.50;5215605;27;34124;-89
2022/04/09 00:29:00;;;;;;;;;;;;;;;13.86;73.99;97829.19;5228758;27;33250;-89
2022/04/09 00:31:28;;;;;;;;;;;;;;;14.20;72.47;97845.53;5228572;27;34825;-89
2022/04/09 00:33:57;;;;;;;;;;;;;;;14.35;71.63;97836.81;5228238;27;34182;-89
2022/04/09 00:36:26;;;;;;;;;;;;;;;14.47;70.75;97833.53;5228999;27;33586;-89
2022/04/09 00:38:58;;;;;;;;;;;;;;;14.43;70.99;97826.78;5234684;27;33642;-89
2022/04/09 00:41:29;;;;;;;;;;;;;;;14.42;70.76;97817.28;5229938;27;34536;-89
2022/04/09 00:44:03;;;;;;;;;;;;;;;14.36;71.04;97816.81;5229885;27;34189;-89
2022/04/09 00:46:35;;;;;;;;;;;;;;;14.13;71.96;97818.12;5230499;27;34537;-89
2022/04/09 00:49:04;;;;;;;;;;;;;;;14.25;71.49;97826.06;5232450;27;32943;-89
2022/04/09 00:51:39;;;;;;;;;;;;;;;14.64;68.87;97829.94;5234730;27;33905;-89
2022/04/09 00:54:09;;;;;;;;;;;;;;;14.81;68.18;97843.75;5234803;27;34253;-88
2022/04/09 00:56:38;;;;;;;;;;;;;;;14.60;68.73;97848.47;5234045;27;34573;-89
2022/04/09 00:59:09;;;;;;;;;;;;;;;14.45;69.62;97871.91;5234811;27;33571;-89
2022/04/09 01:01:39;;;;;;;;;;;;;;;14.48;67.96;97866.50;5231708;27;34013;-89
2022/04/09 01:04:08;;;;;;;;;;;;;;;14.42;68.52;97866.84;5229681;27;33948;-89
2022/04/09 01:06:40;;;;;;;;;;;;;;;14.51;67.90;97881.13;5234922;27;33369;-88
2022/04/09 01:09:10;;;;;;;;;;;;;;;14.69;67.72;97892.28;5229003;27;33202;-88
2022/04/09 01:11:41;;;;;;;;;;;;;;;14.48;68.74;97891.75;5229278;27;34093;-89
2022/04/09 01:14:10;;;;;;;;;;;;;;;14.19;70.18;97862.13;5229122;27;34421;-89
2022/04/09 01:16:43;;;;;;;;;;;;;;;13.66;72.78;97836.37;5228750;27;34305;-88
2022/04/09 01:19:14;;;;;;;;;;;;;;;13.93;72.18;97827.94;5209282;27;32917;-89
2022/04/09 01:21:43;;;;;;;;;;;;;;;14.00;72.05;97826.66;5234534;27;34923;-88
2022/04/09 01:24:13;;;;;;;;;;;;;;;14.07;71.55;97829.75;5227913;27;34973;-89
2022/04/09 01:26:43;;;;;;;;;;;;;;;14.03;71.51;97815.22;5229223;27;33818;-88
2022/04/09 01:29:15;;;;;;;;;;;;;;;13.92;71.51;97821.06;5229330;27;33217;-90
2022/04/09 01:31:47;;;;;;;;;;;;;;;14.18;69.90;97831.75;5229165;27;33931;-89
2022/04/09 01:34:17;;;;;;;;;;;;;;;13.96;70.64;97848.59;5234669;27;34934;-90
2022/04/09 01:36:46;;;;;;;;;;;;;;;14.03;70.48;97859.53;5231425;27;34414;-90
2022/04/09 01:39:18;;;;;;;;;;;;;;;13.95;70.73;97865.19;5233851;27;33598;-89
2022/04/09 01:41:53;;;;;;;;;;;;;;;13.84;71.33;97870.16;5212121;27;33052;-88
2022/04/09 01:44:22;;;;;;;;;;;;;;;13.95;71.17;97874.78;5231026;27;34675;-88
2022/04/09 01:46:51;;;;;;;;;;;;;;;13.90;71.68;97864.59;5210182;27;34381;-88
2022/04/09 01:49:20;;;;;;;;;;;;;;;13.87;71.85;97870.00;5234916;27;33120;-87
2022/04/09 01:51:51;;;;;;;;;;;;;;;13.84;71.86;97877.97;5231072;27;34117;-88
2022/04/09 01:54:22;;;;;;;;;;;;;;;13.76;71.94;97882.78;5229643;27;35286;-87
2022/04/09 01:56:52;;;;;;;;;;;;;;;13.70;72.19;97873.53;5229865;27;34860;-88
2022/04/09 01:59:22;;;;;;;;;;;;;;;13.35;73.96;97842.41;5229371;27;33645;-88
2022/04/09 02:01:53;;;;;;;;;;;;;;;13.93;71.26;97845.34;5233458;27;33886;-89
2022/04/09 02:04:23;;;;;;;;;;;;;;;13.83;70.59;97861.50;5229604;27;33712;-88
2022/04/09 02:09:29;;;;;;;;;;;;;;;13.56;72.02;97848.22;5229646;27;34100;-88
2022/04/09 02:11:59;;;;;;;;;;;;;;;13.62;72.17;97854.84;5229240;27;33771;-88
2022/04/09 02:14:30;;;;;;;;;;;;;;;13.53;72.77;97835.38;5228856;27;33550;-87
2022/04/09 02:17:00;;;;;;;;;;;;;;;13.39;73.64;97833.53;5235456;27;34226;-87
2022/04/09 02:19:29;;;;;;;;;;;;;;;13.40;73.64;97832.59;5229022;27;33120;-87
2022/04/09 02:21:57;;;;;;;;;;;;;;;13.41;74.02;97836.06;5229328;27;34109;-87
2022/04/09 02:24:29;;;;;;;;;;;;;;;13.65;73.18;97833.84;5228912;27;33226;-87
2022/04/09 02:27:03;;;;;;;;;;;;;;;13.30;74.81;97812.34;5229645;27;34864;-87
2022/04/09 02:29:31;;;;;;;;;;;;;;;13.40;74.36;97816.97;5235157;27;32884;-88
2022/04/09 02:32:06;;;;;;;;;;;;;;;13.27;75.40;97828.13;5230061;27;34052;-87
2022/04/09 02:34:34;;;;;;;;;;;;;;;13.33;75.32;97835.59;5229890;27;34381;-87
2022/04/09 02:37:07;;;;;;;;;;;;;;;13.21;75.56;97843.13;5230520;27;34028;-87
2022/04/09 02:39:37;;;;;;;;;;;;;;;13.24;75.86;97853.41;5228663;27;33319;-87
2022/04/09 02:42:07;;;;;;;;;;;;;;;13.18;76.27;97856.31;5229823;27;35553;-88
2022/04/09 02:44:35;;;;;;;;;;;;;;;13.33;75.84;97861.66;5234675;27;34407;-88
2022/04/09 02:47:08;;;;;;;;;;;;;;;13.39;75.23;97861.34;5228924;27;34267;-87
2022/04/09 02:49:37;;;;;;;;;;;;;;;13.28;75.96;97876.69;5229340;27;33546;-87
2022/04/09 02:52:10;;;;;;;;;;;;;;;13.23;76.27;97875.13;5229542;27;34270;-88
2022/04/09 02:54:40;;;;;;;;;;;;;;;13.21;76.30;97884.78;5229748;27;34101;-88
2022/04/09 02:57:20;;;;;;;;;;;;;;;13.17;76.60;97872.88;5234941;27;34874;-88
2022/04/09 02:59:55;;;;;;;;;;;;;;;13.45;75.33;97864.44;5234615;27;33193;-88
2022/04/09 03:02:24;;;;;;;;;;;;;;;13.47;75.25;97866.97;5229490;27;35063;-88
2022/04/09 03:04:55;;;;;;;;;;;;;;;13.43;74.90;97871.50;5229116;27;33282;-88
2022/04/09 03:07:24;;;;;;;;;;;;;;;13.43;75.02;97886.28;5229617;27;34075;-88
2022/04/09 03:09:56;;;;;;;;;;;;;;;13.55;74.63;97880.41;5228873;27;33299;-87
2022/04/09 03:12:26;;;;;;;;;;;;;;;13.52;74.51;97871.94;5235021;27;34762;-87
2022/04/09 03:14:55;;;;;;;;;;;;;;;13.58;74.37;97877.66;5228978;27;34964;-88
2022/04/09 03:17:25;;;;;;;;;;;;;;;13.43;74.64;97866.31;5229932;27;34287;-87
2022/04/09 03:19:54;;;;;;;;;;;;;;;13.53;74.29;97865.78;5229656;27;33486;-87
2022/04/09 03:22:27;;;;;;;;;;;;;;;13.50;74.11;97882.41;5228989;27;34502;-88
2022/04/09 03:25:02;;;;;;;;;;;;;;;13.57;73.68;97895.97;5231619;27;33845;-90
2022/04/09 03:27:31;;;;;;;;;;;;;;;13.38;73.99;97899.53;5235172;27;33888;-88
2022/04/09 03:30:01;;;;;;;;;;;;;;;13.43;74.18;97881.94;5230471;27;33034;-88
2022/04/09 03:32:31;;;;;;;;;;;;;;;13.43;74.06;97883.66;5232481;27;33678;-88
2022/04/09 03:35:05;;;;;;;;;;;;;;;13.43;74.31;97886.28;5230335;27;33934;-88
2022/04/09 03:37:34;;;;;;;;;;;;;;;13.36;74.48;97874.50;5229427;27;34913;-87
2022/04/09 03:40:07;;;;;;;;;;;;;;;13.47;73.00;97853.09;5235361;27;33943;-87
2022/04/09 03:42:36;;;;;;;;;;;;;;;13.46;72.55;97852.28;5228788;27;34609;-88
2022/04/09 03:45:08;;;;;;;;;;;;;;;13.58;71.63;97869.84;5228973;27;33886;-88
2022/04/09 03:47:36;;;;;;;;;;;;;;;13.39;71.87;97890.00;5229276;27;34946;-87
2022/04/09 03:50:07;;;;;;;;;;;;;;;13.25;72.82;97885.47;5229513;27;34039;-87
2022/04/09 03:52:38;;;;;;;;;;;;;;;13.35;72.45;97880.66;5228887;27;34156;-87
2022/04/09 03:55:12;;;;;;;;;;;;;;;13.50;71.63;97871.16;5234681;27;34022;-88
2022/04/09 03:57:40;;;;;;;;;;;;;;;13.36;72.42;97875.37;5229081;27;34187;-88
2022/04/09 04:00:14;;;;;;;;;;;;;;;13.44;71.95;97874.94;5229540;27;33361;-88
2022/04/09 04:02:56;;;;;;;;;;;;;;;13.47;71.85;97866.97;5229796;27;34861;-87
2022/04/09 04:05:25;;;;;;;;;;;;;;;13.37;72.26;97861.41;5231105;27;33947;-87
2022/04/09 04:08:02;;;;;;;;;;;;;;;13.31;72.64;97866.09;5230522;27;35117;-87
2022/04/09 04:10:35;;;;;;;;;;;;;;;13.37;72.39;97856.19;5234419;27;33815;-86
2022/04/09 04:13:06;;;;;;;;;;;;;;;13.47;72.08;97858.31;5230273;27;34978;-87
2022/04/09 04:15:40;;;;;;;;;;;;;;;13.44;71.47;97848.91;5231188;27;34082;-87
2022/04/09 04:18:09;;;;;;;;;;;;;;;13.40;71.65;97847.38;5227053;27;34694;-87
2022/04/09 04:20:40;;;;;;;;;;;;;;;13.42;71.63;97850.75;5228674;27;33157;-87
2022/04/09 04:23:09;;;;;;;;;;;;;;;13.44;71.46;97847.12;5234591;27;34757;-87
2022/04/09 04:25:49;;;;;;;;;;;;;;;13.33;71.75;97846.88;5234337;27;35203;-87
2022/04/09 04:28:23;;;;;;;;;;;;;;;13.48;70.96;97832.16;5228763;27;34024;-86
2022/04/09 04:30:51;;;;;;;;;;;;;;;13.37;71.37;97834.53;5228889;27;33884;-86
2022/04/09 04:33:25;;;;;;;;;;;;;;;13.20;71.93;97819.78;5229155;27;33761;-87
2022/04/09 04:35:54;;;;;;;;;;;;;;;13.07;72.64;97827.41;5229015;27;34330;-86
2022/04/09 04:38:24;;;;;;;;;;;;;;;13.06;72.86;97817.06;5235135;27;34923;-86
2022/04/09 04:40:55;;;;;;;;;;;;;;;13.07;72.90;97822.22;5228583;27;33299;-86
2022/04/09 04:43:24;;;;;;;;;;;;;;;13.01;73.07;97827.72;5229285;27;33167;-85
2022/04/09 04:45:53;;;;;;;;;;;;;;;12.96;73.66;97816.72;5229045;27;34205;-85
2022/04/09 04:48:23;;;;;;;;;;;;;;;12.83;73.88;97813.94;5229534;27;34588;-85
2022/04/09 04:50:56;;;;;;;;;;;;;;;12.77;74.05;97811.63;5230519;27;32955;-85
2022/04/09 04:53:27;;;;;;;;;;;;;;;12.55;75.31;97796.31;5234991;27;34906;-85
2022/04/09 04:56:01;;;;;;;;;;;;;;;12.65;75.29;97781.06;5231755;27;34982;-85
2022/04/09 04:58:32;;;;;;;;;;;;;;;12.76;74.79;97774.38;5234458;27;36041;-85
2022/04/09 05:01:02;;;;;;;;;;;;;;;12.49;76.21;97755.00;5234775;27;34166;-84
2022/04/09 05:03:32;;;;;;;;;;;;;;;12.53;76.13;97749.56;5232925;27;32783;-84
2022/04/09 05:06:01;;;;;;;;;;;;;;;12.06;78.29;97741.62;5234293;27;33688;-84
2022/04/09 05:08:31;;;;;;;;;;;;;;;12.01;78.46;97738.37;5199676;27;811309;-84
2022/04/09 05:11:02;;;;;;;;;;;;;;;12.33;77.28;97753.19;5230297;27;34509;-84
2022/04/09 05:13:31;;;;;;;;;;;;;;;12.12;78.56;97749.09;5230041;27;33445;-84
2022/04/09 05:16:04;;;;;;;;;;;;;;;12.04;79.10;97736.47;5228722;27;34299;-84
2022/04/09 05:18:33;;;;;;;;;;;;;;;12.05;79.11;97732.13;5228926;27;34131;-84
2022/04/09 05:21:03;;;;;;;;;;;;;;;12.41;77.37;97725.97;5234493;27;33004;-84
2022/04/09 05:23:32;;;;;;;;;;;;;;;12.26;77.87;97731.03;5229076;27;34631;-84
2022/04/09 05:26:08;;;;;;;;;;;;;;;12.07;79.00;97732.88;5228236;27;34229;-84
2022/04/09 05:28:38;;;;;;;;;;;;;;;12.04;79.30;97736.47;5228672;27;34513;-84
2022/04/09 05:31:09;;;;;;;;;;;;;;;12.11;78.86;97737.03;5228740;27;32917;-84
2022/04/09 05:33:38;;;;;;;;;;;;;;;12.09;79.21;97744.87;5234218;27;35804;-85
2022/04/09 05:36:07;;;;;;;;;;;;;;;12.27;78.41;97742.25;5229585;27;35098;-86
2022/04/09 05:38:36;;;;;;;;;;;;;;;12.02;79.22;97747.88;5229062;27;34203;-86
2022/04/09 05:41:11;;;;;;;;;;;;;;;12.19;78.45;97745.25;5231217;27;33903;-84
2022/04/09 05:43:43;;;;;;;;;;;;;;;12.27;77.66;97734.47;5233457;27;34956;-84
2022/04/09 05:46:12;;;;;;;;;;;;;;;12.15;78.19;97751.53;5233690;27;34372;-84
2022/04/09 05:48:47;;;;;;;;;;;;;;;12.25;77.80;97755.34;5234096;27;34927;-84
2022/04/09 05:51:15;;;;;;;;;;;;;;;12.17;77.93;97770.47;5234071;27;33750;-84
2022/04/09 05:53:46;;;;;;;;;;;;;;;12.23;77.91;97774.56;5230245;27;34554;-84
2022/04/09 05:56:16;;;;;;;;;;;;;;;12.19;77.99;97773.84;5229854;27;33900;-85
2022/04/09 05:58:46;;;;;;;;;;;;;;;12.30;77.40;97781.97;5228627;27;33690;-84
2022/04/09 06:01:38;;;;;;;;;;;;;;;12.34;77.59;97780.03;5228199;27;34529;-84
2022/04/09 06:04:08;;;;;;;;;;;;;;;12.19;78.45;97773.84;5234023;27;34055;-84
2022/04/09 06:06:40;;;;;;;;;;;;;;;12.24;78.21;97781.41;5228207;27;34363;-84
2022/04/09 06:09:15;;;;;;;;;;;;;;;12.38;77.53;97779.81;5228053;27;34754;-85
2022/04/09 06:11:51;;;;;;;;;;;;;;;11.89;80.18;97778.84;5228901;27;34123;-84
2022/04/09 06:14:28;;;;;;;;;;;;;;;12.27;78.32;97791.66;5228299;27;34999;-84
2022/04/09 06:17:06;;;;;;;;;;;;;;;12.25;78.45;97770.97;5229219;27;34188;-85
2022/04/09 06:19:36;;;;;;;;;;;;;;;12.30;78.19;97784.56;5234993;27;34054;-84
2022/04/09 06:22:06;;;;;;;;;;;;;;;12.39;77.45;97791.03;5231057;27;33175;-85
2022/04/09 06:24:36;;;;;;;;;;;;;;;12.09;79.15;97783.03;5229233;27;33739;-84
2022/04/09 06:27:09;;;;;;;;;;;;;;;12.58;77.04;97780.53;5228969;27;34420;-85
2022/04/09 06:29:44;;;;;;;;;;;;;;;12.45;77.89;97771.69;5231710;27;33051;-84
2022/04/09 06:32:12;;;;;;;;;;;;;;;12.41;78.79;97780.56;5231569;27;33438;-84
2022/04/09 06:34:41;;;;;;;;;;;;;;;12.65;77.68;97766.28;5235528;27;33593;-85
2022/04/09 06:37:11;;;;;;;;;;;;;;;12.63;78.32;97767.28;5231116;27;34605;-84
2022/04/09 06:39:42;;;;;;;;;;;;;;;12.87;77.36;97781.59;5232740;27;33509;-84
2022/04/09 06:42:14;;;;;;;;;;;;;;;12.93;77.14;97777.84;5230753;27;33803;-85
2022/04/09 06:44:44;;;;;;;;;;;;;;;12.91;76.73;97774.50;5229161;27;34953;-85
2022/04/09 06:47:14;;;;;;;;;;;;;;;12.97;76.11;97771.53;5235323;27;33326;-84
2022/04/09 06:49:43;;;;;;;;;;;;;;;12.93;75.90;97788.25;5229448;27;35230;-84
2022/04/09 06:52:16;;;;;;;;;;;;;;;12.86;75.87;97797.31;5229374;27;33598;-85
2022/04/09 06:54:50;;;;;;;;;;;;;;;12.88;75.44;97811.94;5229673;27;33711;-86
2022/04/09 06:57:20;;;;;;;;;;;;;;;12.89;75.33;97812.75;5229607;27;35165;-84
2022/04/09 06:59:51;;;;;;;;;;;;;;;12.83;76.27;97795.72;5229139;27;34359;-84
2022/04/09 07:02:20;;;;;;;;;;;;;;;12.77;76.71;97794.25;5235237;27;33174;-84
2022/04/09 07:04:50;;;;;;;;;;;;;;;12.96;76.09;97795.91;5229882;27;34592;-85
2022/04/09 07:07:20;;;;;;;;;;;;;;;13.10;75.69;97806.41;5229008;27;35243;-84
2022/04/09 07:09:57;;;;;;;;;;;;;;;13.08;75.58;97817.84;5229124;27;34142;-84
2022/04/09 07:12:28;;;;;;;;;;;;;;;12.97;76.75;97802.78;5229267;27;34127;-84
2022/04/09 07:15:07;;;;;;;;;;;;;;;13.13;76.95;97803.66;5229579;27;34249;-83
2022/04/09 07:17:39;;;;;;;;;;;;;;;13.34;76.53;97812.09;5235532;27;34985;-85
2022/04/09 07:20:10;;;;;;;;;;;;;;;13.53;74.22;97996.91;5229089;27;34255;-84
2022/04/09 07:22:40;;;;;;;;;;;;;;;12.36;78.08;98007.84;5209097;27;33029;-86
2022/04/09 07:25:09;;;;;;;;;;;;;;;12.23;77.18;98000.72;5228818;27;34965;-85
2022/04/09 07:27:41;;;;;;;;;;;;;;;12.32;74.55;98019.34;5229601;27;34244;-85
2022/04/09 07:30:11;;;;;;;;;;;;;;;11.92;73.40;98017.75;5234459;27;34123;-87
2022/04/09 07:32:43;;;;;;;;;;;;;;;11.57;74.42;98012.31;5229209;27;32787;-87
2022/04/09 07:35:12;;;;;;;;;;;;;;;11.57;73.54;98011.47;5229364;27;33917;-86
2022/04/09 07:37:44;;;;;;;;;;;;;;;11.49;73.93;98001.44;5229495;27;33926;-86
2022/04/09 07:40:14;;;;;;;;;;;;;;;11.61;74.16;97997.44;5228815;27;34794;-86
2022/04/09 07:42:47;;;;;;;;;;;;;;;11.58;74.91;97992.41;5228744;27;33496;-87
2022/04/09 07:45:16;;;;;;;;;;;;;;;11.76;73.99;97994.16;5233771;27;33833;-87
2022/04/09 07:47:45;;;;;;;;;;;;;;;11.96;74.10;97988.09;5229198;27;34011;-87
2022/04/09 07:50:14;;;;;;;;;;;;;;;12.04;73.67;97977.34;5229248;27;34552;-86
2022/04/09 07:52:43;;;;;;;;;;;;;;;11.89;74.55;97992.72;5209639;27;31974;-86
2022/04/09 07:55:16;;;;;;;;;;;;;;;12.13;72.92;97988.16;5229134;27;34914;-86
2022/04/09 07:57:54;;;;;;;;;;;;;;;11.99;74.25;97981.94;5233518;27;33541;-86
2022/04/09 08:00:23;;;;;;;;;;;;;;;12.32;72.86;97969.94;5235691;27;33908;-86
2022/04/09 08:02:55;;;;;;;;;;;;;;;12.38;73.59;97968.78;5228946;27;33288;-85
2022/04/09 08:05:23;;;;;;;;;;;;;;;12.28;74.18;97971.00;5228536;27;34000;-85
2022/04/09 08:07:52;;;;;;;;;;;;;;;12.52;72.42;97975.94;5229580;27;34915;-85
2022/04/09 08:10:23;;;;;;;;;;;;;;;12.43;73.53;97971.19;5229839;27;35044;-85
2022/04/09 08:12:56;;;;;;;;;;;;;;;12.66;73.49;97972.63;5234692;27;33585;-85
2022/04/09 08:15:27;;;;;;;;;;;;;;;12.73;73.54;97974.03;5230074;27;34158;-85
2022/04/09 08:18:12;;;;;;;;;;;;;;;12.68;73.69;97976.84;5229756;27;32789;-85
2022/04/09 08:21:08;;;;;;;;;;;;;;;12.77;74.24;97966.00;5230200;27;33998;-85
2022/04/09 08:23:40;;;;;;;;;;;;;;;12.95;73.39;97973.78;5229388;27;33864;-85
2022/04/09 08:26:08;;;;;;;;;;;;;;;13.03;73.25;97982.06;5228572;27;33830;-84
2022/04/09 08:28:44;;;;;;;;;;;;;;;13.09;73.24;97988.72;5228564;27;34258;-84
2022/04/09 08:31:13;;;;;;;;;;;;;;;13.07;73.48;97990.56;5235279;27;34200;-85
2022/04/09 08:33:42;;;;;;;;;;;;;;;13.11;73.73;97992.94;5209672;27;33674;-85
2022/04/09 08:36:28;;;;;;;;;;;;;;;13.17;73.94;97984.81;5228725;27;34720;-85
2022/04/09 08:38:58;;;;;;;;;;;;;;;13.29;73.37;97982.53;5228842;27;35688;-85
2022/04/09 08:41:29;;;;;;;;;;;;;;;13.06;72.47;97994.09;5229223;27;34594;-86
2022/04/09 08:43:59;;;;;;;;;;;;;;;13.08;71.06;97989.66;5228387;27;33353;-86
2022/04/09 08:46:29;;;;;;;;;;;;;;;13.00;71.56;97993.50;5234861;27;34079;-86
2022/04/09 08:48:58;;;;;;;;;;;;;;;12.94;71.98;97998.16;5228391;27;33265;-87
2022/04/09 08:51:27;;;;;;;;;;;;;;;13.11;71.95;97998.13;5228501;27;33762;-86
2022/04/09 08:54:00;;;;;;;;;;;;;;;13.09;71.01;98015.59;5228687;27;33475;-87
2022/04/09 08:56:34;;;;;;;;;;;;;;;12.67;73.05;98023.78;5230305;27;34078;-87
2022/04/09 08:59:04;;;;;;;;;;;;;;;12.62;73.21;98029.19;5234086;27;35161;-85
2022/04/09 09:01:41;;;;;;;;;;;;;;;12.62;73.34;98024.00;5228250;27;33482;-85
2022/04/09 09:04:13;;;;;;;;;;;;;;;12.80;73.02;98028.28;5226834;27;32832;-85
2022/04/09 09:06:45;;;;;;;;;;;;;;;12.72;73.26;98032.19;5227800;27;34625;-85
2022/04/09 09:09:25;;;;;;;;;;;;;;;12.82;72.93;98042.06;5227036;27;34294;-85
2022/04/09 09:12:00;;;;;;;;;;;;;;;13.04;72.52;98043.63;5233221;27;34731;-85
2022/04/09 09:14:32;;;;;;;;;;;;;;;12.82;72.61;98056.84;5234742;27;33217;-85
2022/04/09 09:17:00;;;;;;;;;;;;;;;12.51;71.92;98058.31;5229423;27;33625;-85
2022/04/09 09:19:59;;;;;;;;;;;;;;;12.35;73.73;98059.97;5229258;27;34271;-85
2022/04/09 09:22:37;;;;;;;;;;;;;;;12.06;71.30;98051.75;5230571;27;34036;-85
2022/04/09 09:25:09;;;;;;;;;;;;;;;11.69;71.00;98063.75;5229419;27;34362;-84
2022/04/09 09:27:38;;;;;;;;;;;;;;;11.53;71.88;98060.97;5229272;27;34262;-85
2022/04/09 09:30:14;;;;;;;;;;;;;;;11.31;72.08;98060.19;5234274;27;35410;-85
2022/04/09 09:32:44;;;;;;;;;;;;;;;11.22;72.50;98082.19;5228438;27;33960;-85
2022/04/09 09:35:18;;;;;;;;;;;;;;;11.21;73.09;98072.72;5228490;27;33426;-85
2022/04/09 09:37:48;;;;;;;;;;;;;;;11.14;73.65;98097.25;5229398;27;34854;-85
2022/04/09 09:40:31;;;;;;;;;;;;;;;11.28;73.40;98114.81;5232804;27;34704;-85
2022/04/09 09:43:13;;;;;;;;;;;;;;;11.02;74.55;98134.91;5231250;27;35103;-86
2022/04/09 09:45:49;;;;;;;;;;;;;;;11.36;73.64;98151.72;5233967;27;33135;-85
2022/04/09 09:48:21;;;;;;;;;;;;;;;11.09;73.35;98167.50;5228404;27;34301;-85
2022/04/09 09:50:50;;;;;;;;;;;;;;;10.40;71.36;98174.47;5229449;27;34193;-84
2022/04/09 09:53:29;;;;;;;;;;;;;;;9.96;72.11;98192.44;5229609;27;33982;-85
2022/04/09 09:55:58;;;;;;;;;;;;;;;9.16;74.04;98206.25;5228876;27;33494;-84
2022/04/09 09:58:28;;;;;;;;;;;;;;;9.13;73.40;98221.00;5232388;27;34195;-85
2022/04/09 10:01:17;;;;;;;;;;;;;;;8.88;73.28;98223.50;5234807;27;34287;-85
2022/04/09 10:03:46;;;;;;;;;;;;;;;8.77;74.33;98226.41;5229525;27;33202;-85
2022/04/09 10:06:15;;;;;;;;;;;;;;;8.75;74.75;98226.44;5229184;27;33284;-85
2022/04/09 10:08:43;;;;;;;;;;;;;;;9.01;75.21;98231.72;5229000;27;34186;-85
2022/04/09 10:11:16;;;;;;;;;;;;;;;9.17;74.18;98231.22;5228524;27;33426;-85
2022/04/09 10:13:47;;;;;;;;;;;;;;;8.91;74.16;98236.34;5232127;27;35126;-85
2022/04/09 10:16:20;;;;;;;;;;;;;;;8.74;73.18;98240.25;5234818;27;33133;-85
2022/04/09 10:18:52;;;;;;;;;;;;;;;8.65;73.64;98242.25;5228704;27;34044;-85
2022/04/09 10:21:24;;;;;;;;;;;;;;;8.84;73.30;98243.41;5229071;27;34683;-86
2022/04/09 10:23:56;;;;;;;;;;;;;;;8.66;71.83;98249.16;5229512;27;33813;-86
2022/04/09 10:26:25;;;;;;;;;;;;;;;8.72;73.20;98251.53;5229432;27;33444;-86
2022/04/09 10:28:53;;;;;;;;;;;;;;;8.86;73.59;98248.56;5234464;27;34339;-86
2022/04/09 10:31:39;;;;;;;;;;;;;;;8.97;72.70;98252.53;5229045;27;33624;-85
2022/04/09 10:34:10;;;;;;;;;;;;;;;8.52;70.26;98255.53;5230060;27;33831;-85
2022/04/09 10:37:05;;;;;;;;;;;;;;;8.37;70.17;98255.09;5231376;27;33458;-85
2022/04/09 10:39:45;;;;;;;;;;;;;;;8.30;70.68;98237.16;5230437;27;34118;-85
2022/04/09 10:42:32;;;;;;;;;;;;;;;8.45;72.21;98254.00;5231745;27;35096;-85
2022/04/09 10:45:04;;;;;;;;;;;;;;;8.78;71.08;98259.12;5231967;27;33969;-85
2022/04/09 10:47:50;;;;;;;;;;;;;;;8.93;69.25;98292.28;5234862;27;34002;-86
2022/04/09 10:50:19;;;;;;;;;;;;;;;8.59;67.71;98291.56;5215984;27;32712;-85
2022/04/09 10:52:49;;;;;;;;;;;;;;;8.51;68.42;98281.44;5230308;27;34257;-86
2022/04/09 10:55:24;;;;;;;;;;;;;;;8.57;67.34;98299.34;5228661;27;34882;-86
2022/04/09 10:58:00;;;;;;;;;;;;;;;8.36;67.48;98289.56;5227469;27;32874;-87
2022/04/09 11:00:37;;;;;;;;;;;;;;;8.31;67.66;98290.56;5228694;27;33640;-86
2022/04/09 11:03:16;;;;;;;;;;;;;;;8.43;65.81;98296.28;5228963;27;35018;-87
2022/04/09 11:05:45;;;;;;;;;;;;;;;8.25;66.19;98319.13;5233945;27;34149;-87
2022/04/09 11:08:17;;;;;;;;;;;;;;;8.26;67.17;98296.72;5226908;27;33584;-85
2022/04/09 11:10:46;;;;;;;;;;;;;;;7.99;66.62;98299.09;5228657;27;34119;-86
2022/04/09 11:13:29;;;;;;;;;;;;;;;7.91;65.77;98314.81;5231084;27;34044;-86
2022/04/09 11:16:00;;;;;;;;;;;;;;;8.10;66.46;98338.44;5228959;27;34121;-87
2022/04/09 11:18:33;;;;;;;;;;;;;;;8.19;65.50;98346.84;5229045;27;33353;-86
2022/04/09 11:21:12;;;;;;;;;;;;;;;8.34;65.43;98362.81;5234218;27;34016;-87
2022/04/09 11:23:55;;;;;;;;;;;;;;;8.50;64.16;98373.62;5230075;27;33923;-87
2022/04/09 11:26:28;;;;;;;;;;;;;;;8.30;63.48;98360.34;5230457;27;34178;-85
2022/04/09 11:28:56;;;;;;;;;;;;;;;8.09;63.96;98375.50;5233741;27;34106;-86
2022/04/09 11:31:28;;;;;;;;;;;;;;;8.24;64.32;98404.41;5230229;27;34105;-86
2022/04/09 11:34:04;;;;;;;;;;;;;;;8.37;63.88;98413.56;5231673;27;34338;-86
2022/04/09 11:36:40;;;;;;;;;;;;;;;8.34;64.24;98418.81;5234490;27;33725;-86
2022/04/09 11:39:08;;;;;;;;;;;;;;;8.63;63.54;98414.69;5229703;27;33303;-86
2022/04/09 11:41:38;;;;;;;;;;;;;;;8.43;63.41;98410.00;5228453;27;33735;-87
2022/04/09 11:44:17;;;;;;;;;;;;;;;;;;;;;
2022/04/09 11:46:46;;;;;;;;;;;;;;;8.59;62.71;98424.25;5228125;27;34898;-86
2022/04/09 11:49:19;;;;;;;;;;;;;;;8.50;61.90;98416.72;5229647;27;32825;-87
2022/04/09 11:51:54;;;;;;;;;;;;;;;8.95;61.86;98432.78;5234320;27;34857;-86
2022/04/09 11:54:31;;;;;;;;;;;;;;;8.92;59.95;98440.63;5228453;27;35084;-86
2022/04/09 11:57:02;;;;;;;;;;;;;;;8.71;59.92;98452.38;5227701;27;35046;-87
2022/04/09 11:59:31;;;;;;;;;;;;;;;8.71;60.22;98467.03;5228355;27;33730;-87
2022/04/09 12:02:01;;;;;;;;;;;;;;;8.73;60.39;98447.16;5227912;27;33832;-87
2022/04/09 12:04:35;;;;;;;;;;;;;;;8.78;60.40;98473.75;5228187;27;34339;-87
2022/04/09 12:07:03;;;;;;;;;;;;;;;8.50;59.79;98453.75;5234375;27;34087;-87
2022/04/09 12:09:32;;;;;;;;;;;;;;;8.56;59.44;98482.94;5231524;27;33718;-86
2022/04/09 12:12:04;;;;;;;;;;;;;;;8.65;59.76;98483.56;5232586;27;34632;-87
2022/04/09 12:14:33;;;;;;;;;;;;;;;8.73;58.48;98479.03;5233728;27;33749;-87
2022/04/09 12:17:09;;;;;;;;;;;;;;;8.41;58.39;98482.41;5232907;27;34634;-88
2022/04/09 12:19:48;;;;;;;;;;;;;;;8.32;59.00;98486.03;5233994;27;34201;-87
2022/04/09 12:22:19;;;;;;;;;;;;;;;8.32;57.94;98480.00;5234372;27;34605;-87
2022/04/09 12:24:49;;;;;;;;;;;;;;;8.23;58.81;98491.41;5229943;27;35829;-86
2022/04/09 12:27:23;;;;;;;;;;;;;;;8.33;57.45;98517.88;5226962;27;33844;-87
2022/04/09 12:29:59;;;;;;;;;;;;;;;8.31;58.12;98515.34;5228178;27;33053;-88
2022/04/09 12:32:31;;;;;;;;;;;;;;;8.15;58.38;98508.81;5228673;27;34037;-87
2022/04/09 12:35:05;;;;;;;;;;;;;;;8.38;57.60;98495.34;5234357;27;33675;-89
2022/04/09 12:37:42;;;;;;;;;;;;;;;8.16;58.20;98494.16;5215090;27;36608;-89
2022/04/09 12:40:15;;;;;;;;;;;;;;;8.54;58.18;98503.66;5228544;27;34081;-88
2022/04/09 12:42:45;;;;;;;;;;;;;;;8.50;57.17;98474.41;5228535;27;33734;-86
2022/04/09 12:45:22;;;;;;;;;;;;;;;8.75;57.79;98471.25;5227992;27;35063;-87
2022/04/09 12:47:54;;;;;;;;;;;;;;;8.45;56.75;98488.34;5228456;27;34355;-88
2022/04/09 12:50:33;;;;;;;;;;;;;;;8.30;57.28;98471.44;5228624;27;33610;-89
2022/04/09 12:53:02;;;;;;;;;;;;;;;8.24;57.38;98492.25;5234672;27;34752;-90
2022/04/09 12:55:31;;;;;;;;;;;;;;;8.49;57.74;98477.91;5228241;27;35145;-88
2022/04/09 12:58:01;;;;;;;;;;;;;;;8.79;56.84;98485.78;5230037;27;34573;-89
2022/04/09 13:00:33;;;;;;;;;;;;;;;8.56;57.33;98495.88;5228889;27;33452;-89
2022/04/09 13:03:06;;;;;;;;;;;;;;;8.52;56.71;98483.00;5229254;27;34284;-90
2022/04/09 13:05:36;;;;;;;;;;;;;;;8.52;57.58;98477.81;5234244;27;34163;-89
2022/04/09 13:08:08;;;;;;;;;;;;;;;8.65;57.23;98480.97;5229219;27;33803;-89
2022/04/09 13:10:39;;;;;;;;;;;;;;;8.87;56.90;98495.97;5210777;27;32022;-88
2022/04/09 13:13:08;;;;;;;;;;;;;;;8.70;57.24;98511.88;5208322;27;32500;-89
2022/04/09 13:15:37;;;;;;;;;;;;;;;9.00;55.64;98493.91;5228186;27;34303;-90
2022/04/09 13:18:09;;;;;;;;;;;;;;;8.99;56.01;98498.22;5228446;27;34144;-87